Time;durP1;ratioP1;P1;durP2;ratioP2;P2;SDS_P1;SDS_P2;PMS_P1;PMS_P2;Temp;Humidity;BMP_temperature;BMP_pressure;BME280_temperature;BME280_humidity;BME280_pressure;Samples;Min_cycle;Max_cycle;Signal;HPM_P1;HPM_P2
2022/01/20 00:01:50;;;;;;;19.20;2.28;;;;;;;-142.75;100.00;78850.44;5030508;28;20479;-67
2022/01/20 00:04:46;;;;;;;17.23;2.53;;;;;;;-142.75;100.00;78852.41;5032208;28;20414;-67
2022/01/20 00:07:26;;;;;;;12.93;2.03;;;;;;;-142.75;100.00;78850.44;5031022;28;20033;-68
2022/01/20 00:26:00;;;;;;;15.00;1.63;;;;;;;-142.75;100.00;78903.63;5031286;28;20117;-68
2022/01/20 00:28:43;;;;;;;12.17;2.10;;;;;;;-142.75;100.00;78913.47;5030860;28;20083;-67
2022/01/20 00:33:52;;;;;;;10.53;1.47;;;;;;;-142.75;100.00;78907.56;5030547;28;20428;-67
2022/01/20 00:39:03;;;;;;;8.47;1.63;;;;;;;-142.75;100.00;78901.66;5031102;28;20033;-67
2022/01/20 00:41:28;;;;;;;13.73;1.80;;;;;;;-142.75;100.00;78897.72;5031052;28;20372;-67
2022/01/20 00:43:53;;;;;;;22.67;1.73;;;;;;;-142.75;100.00;78901.66;5031128;28;20036;-67
2022/01/20 00:46:18;;;;;;;6.80;1.63;;;;;;;-142.75;100.00;78905.59;5013130;28;20383;-67
2022/01/20 00:48:44;;;;;;;15.10;1.52;;;;;;;-142.75;100.00;78903.63;5030550;28;20516;-67
2022/01/20 00:51:09;;;;;;;11.00;2.08;;;;;;;-142.75;100.00;78897.72;5030876;28;20025;-68
2022/01/20 00:53:43;;;;;;;8.48;1.73;;;;;;;-142.75;100.00;78903.63;5031521;28;20171;-67
2022/01/20 00:56:09;;;;;;;11.67;1.73;;;;;;;-142.75;100.00;78897.72;5030663;28;20025;-68
2022/01/20 00:58:34;;;;;;;17.17;2.50;;;;;;;-142.75;100.00;78897.72;5030602;28;20038;-68
2022/01/20 01:00:59;;;;;;;12.90;2.63;;;;;;;-142.75;100.00;78893.78;5013087;28;20112;-68
2022/01/20 01:03:25;;;;;;;9.32;1.85;;;;;;;-142.75;100.00;78893.78;5030471;28;20398;-67
2022/01/20 01:08:34;;;;;;;13.67;2.03;;;;;;;-142.75;100.00;78893.78;5030468;28;20376;-67
2022/01/20 01:10:59;;;;;;;14.25;2.75;;;;;;;-142.75;100.00;78887.84;5030619;28;20120;-67
2022/01/20 01:13:26;;;;;;;15.82;2.08;;;;;;;-142.75;100.00;78893.78;5030516;28;20033;-67
2022/01/20 01:15:52;;;;;;;15.90;2.10;;;;;;;-142.75;100.00;78887.84;5012651;28;20112;-67
2022/01/20 01:23:39;;;;;;;17.10;2.13;;;;;;;-142.75;100.00;78866.19;5031105;28;20048;-67
2022/01/20 01:26:07;;;;;;;20.40;2.50;;;;;;;-142.75;100.00;78874.06;5012317;28;20014;-67
2022/01/20 01:28:33;;;;;;;20.83;2.40;;;;;;;-142.75;100.00;78876.03;5029950;28;20056;-67
2022/01/20 01:33:54;;;;;;;18.63;2.13;;;;;;;-142.75;100.00;78879.97;5030408;28;20036;-67
2022/01/20 01:36:21;;;;;;;10.07;1.87;;;;;;;-142.75;100.00;78893.78;5030253;28;20078;-68
2022/01/20 01:38:47;;;;;;;15.43;2.20;;;;;;;-142.75;100.00;78901.66;5029950;28;20022;-67
2022/01/20 01:41:16;;;;;;;24.23;2.10;;;;;;;-142.75;100.00;78895.75;5030084;28;20033;-67
2022/01/20 01:43:45;;;;;;;12.27;1.33;;;;;;;-142.75;100.00;78905.59;5030256;28;20475;-67
2022/01/20 01:46:14;;;;;;;8.10;1.03;;;;;;;-142.75;100.00;78911.50;5029744;28;20625;-68
2022/01/20 01:48:41;;;;;;;5.83;1.03;;;;;;;-142.75;100.00;78909.53;5011932;28;20609;-67
2022/01/20 01:51:07;;;;;;;5.17;0.80;;;;;;;-142.75;100.00;78917.41;5030050;28;20068;-67
2022/01/20 01:53:32;;;;;;;9.70;1.33;;;;;;;-142.75;100.00;78915.44;5030574;28;20083;-68
2022/01/20 01:55:58;;;;;;;4.85;1.00;;;;;;;-142.75;100.00;78921.34;5029814;28;20021;-67
2022/01/20 01:58:24;;;;;;;6.80;1.13;;;;;;;-142.75;100.00;78919.38;5029693;28;20036;-67
2022/01/20 02:00:49;;;;;;;16.25;1.60;;;;;;;-142.75;100.00;78925.28;5015018;28;20052;-68
2022/01/20 02:03:15;;;;;;;9.88;1.27;;;;;;;-142.75;100.00;78925.28;5049794;28;20048;-67
2022/01/20 02:19:10;;;;;;;17.83;2.23;;;;;;;-142.75;100.00;78948.91;5049604;28;20413;-67
2022/01/20 02:21:46;;;;;;;12.98;2.08;;;;;;;-142.75;100.00;78944.97;5049545;28;20021;-67
2022/01/20 02:24:12;;;;;;;20.35;2.28;;;;;;;-142.75;100.00;78944.97;5032213;28;20410;-67
2022/01/20 02:26:37;;;;;;;20.05;3.58;;;;;;;-142.75;100.00;78944.97;5049261;28;20036;-67
2022/01/20 02:29:02;;;;;;;16.35;2.60;;;;;;;-142.75;100.00;78941.03;5049232;28;20041;-67
2022/01/20 02:31:28;;;;;;;14.13;2.70;;;;;;;-142.75;100.00;78937.09;5049551;28;20028;-67
2022/01/20 02:33:54;;;;;;;17.20;2.95;;;;;;;-142.75;100.00;78929.22;5049295;28;20433;-67
2022/01/20 02:36:20;;;;;;;19.03;3.70;;;;;;;-142.75;100.00;78923.31;5049435;28;20036;-67
2022/01/20 02:38:55;;;;;;;20.85;2.88;;;;;;;-142.75;100.00;78913.47;5049101;28;20390;-67
2022/01/20 02:46:48;;;;;;;20.67;2.53;;;;;;;-142.75;100.00;78913.47;5049181;28;20083;-67
2022/01/20 02:49:16;;;;;;;17.02;2.60;;;;;;;-142.75;100.00;78921.34;5031214;28;20017;-67
2022/01/20 02:51:54;;;;;;;15.53;2.63;;;;;;;-142.75;100.00;78923.31;5049434;28;20052;-67
2022/01/20 02:54:21;;;;;;;15.93;3.00;;;;;;;-142.75;100.00;78917.41;5032209;28;20096;-67
2022/01/20 02:56:47;;;;;;;21.17;3.00;;;;;;;-142.75;100.00;78905.59;5031759;28;20079;-66
2022/01/20 02:59:13;;;;;;;17.60;2.67;;;;;;;-142.75;100.00;78913.47;5052367;28;20025;-67
2022/01/20 03:01:38;;;;;;;27.65;3.80;;;;;;;-142.75;100.00;78911.50;5035024;28;20021;-67
2022/01/20 03:04:04;;;;;;;23.10;2.45;;;;;;;-142.75;100.00;78917.41;5034746;28;20078;-67
2022/01/20 03:06:30;;;;;;;19.38;2.47;;;;;;;-142.75;100.00;78905.59;5024170;28;20403;-67
2022/01/20 03:08:55;;;;;;;16.58;2.67;;;;;;;-142.75;100.00;78909.53;5014621;28;20121;-67
2022/01/20 03:11:20;;;;;;;14.03;2.83;;;;;;;-142.75;100.00;78901.66;5015039;28;20104;-67
2022/01/20 03:13:46;;;;;;;17.20;2.22;;;;;;;-142.75;100.00;78929.22;5032714;28;20267;-66
2022/01/20 03:16:11;;;;;;;17.27;2.97;;;;;;;-142.75;100.00;78933.16;5015040;28;20057;-67
2022/01/20 03:18:36;;;;;;;21.55;2.80;;;;;;;-142.75;100.00;78944.97;5032427;28;20424;-66
2022/01/20 03:21:02;;;;;;;17.67;2.50;;;;;;;-142.75;100.00;78941.03;5032620;28;20025;-67
2022/01/20 03:23:28;;;;;;;16.95;2.97;;;;;;;-142.75;100.00;78943.00;5015349;28;20063;-67
2022/01/20 03:25:53;;;;;;;17.38;3.28;;;;;;;-142.75;100.00;78937.09;5032404;28;20025;-67
2022/01/20 03:28:18;;;;;;;24.70;3.10;;;;;;;-142.75;100.00;78935.13;5032310;28;20022;-67
2022/01/20 03:30:44;;;;;;;23.13;2.50;;;;;;;-142.75;100.00;78944.97;5029805;28;20040;-66
2022/01/20 03:33:10;;;;;;;20.00;2.70;;;;;;;-142.75;100.00;78956.78;5052059;28;20314;-67
2022/01/20 03:35:35;;;;;;;20.95;3.15;;;;;;;-142.75;100.00;78956.78;5052091;28;20025;-68
2022/01/20 03:38:01;;;;;;;32.03;3.63;;;;;;;-142.75;100.00;78964.69;5051905;28;20359;-67
2022/01/20 03:40:26;;;;;;;17.88;2.72;;;;;;;-142.75;100.00;78960.72;5051931;28;20382;-67
2022/01/20 03:42:51;;;;;;;23.40;3.65;;;;;;;-142.75;100.00;78956.78;5052317;28;20037;-67
2022/01/20 03:45:17;;;;;;;19.60;2.90;;;;;;;-142.75;100.00;78956.78;5051796;28;20021;-67
2022/01/20 03:47:43;;;;;;;19.92;3.65;;;;;;;-142.75;100.00;78960.72;5034370;28;20024;-67
2022/01/20 03:50:59;;;;;;;11.32;2.05;;;;;;;-142.75;100.00;78968.63;5033771;28;20111;-67
2022/01/20 03:52:54;;;;;;;23.63;2.47;;;;;;;-142.75;100.00;78968.63;5051797;28;20036;-67
2022/01/20 03:55:19;;;;;;;23.05;2.75;;;;;;;-142.75;100.00;78966.66;5034014;28;20036;-67
2022/01/20 03:57:44;;;;;;;19.75;2.50;;;;;;;-142.75;100.00;78972.56;5034051;28;20017;-66
2022/01/20 04:00:11;;;;;;;7.18;1.27;;;;;;;-142.75;100.00;78994.22;5051527;28;20100;-67
2022/01/20 04:02:36;;;;;;;11.70;1.42;;;;;;;-142.75;100.00;79015.88;5051519;28;20040;-67
2022/01/20 04:05:01;;;;;;;7.50;1.40;;;;;;;-142.75;100.00;79047.41;5051839;28;20033;-67
2022/01/20 04:07:27;;;;;;;4.50;1.00;;;;;;;-142.75;100.00;79061.19;5051114;28;20453;-67
2022/01/20 04:09:52;;;;;;;3.15;0.90;;;;;;;-142.75;100.00;79057.25;5050302;28;20386;-67
2022/01/20 04:12:27;;;;;;;8.05;1.33;;;;;;;-142.75;100.00;79071.03;5051663;28;20043;-67
2022/01/20 04:14:52;;;;;;;7.53;1.30;;;;;;;-142.75;100.00;79082.84;5042733;28;20670;-66
2022/01/20 04:17:19;;;;;;;6.57;0.80;;;;;;;-142.75;100.00;79104.53;5051335;28;20025;-67
2022/01/20 04:19:45;;;;;;;11.70;1.20;;;;;;;-142.75;100.00;79092.69;5050959;28;20279;-68
2022/01/20 04:22:10;;;;;;;7.93;1.10;;;;;;;-142.75;100.00;79086.78;5033607;28;20663;-67
2022/01/20 04:24:37;;;;;;;7.15;0.90;;;;;;;-142.75;100.00;79110.44;5034112;28;20029;-67
2022/01/20 04:27:03;;;;;;;5.50;1.70;;;;;;;-142.75;100.00;79122.25;5032972;28;20082;-67
2022/01/20 04:29:28;;;;;;;;;;;;;;;-142.75;100.00;79141.94;5051538;28;20029;-67
2022/01/20 04:31:54;;;;;;;9.60;0.90;;;;;;;-142.75;100.00;79132.09;5051002;28;19944;-68
2022/01/20 04:34:20;;;;;;;8.57;1.23;;;;;;;-142.75;100.00;79134.06;5051157;28;20507;-67
2022/01/20 04:36:48;;;;;;;6.13;1.05;;;;;;;-142.75;100.00;79139.97;5033302;28;20500;-66
2022/01/20 04:39:18;;;;;;;6.37;1.30;;;;;;;-142.75;100.00;79141.94;5050522;28;20098;-66
2022/01/20 04:41:44;;;;;;;8.30;1.27;;;;;;;-142.75;100.00;79141.94;5050829;28;20393;-66
2022/01/20 04:44:16;;;;;;;11.52;1.42;;;;;;;-142.75;100.00;79138.00;5032980;28;20112;-67
2022/01/20 04:47:02;;;;;;;7.50;1.00;;;;;;;-142.75;100.00;79157.72;5051013;28;20444;-67
2022/01/20 04:57:30;;;;;;;9.97;1.27;;;;;;;-142.75;100.00;79145.88;5050501;28;20410;-67
2022/01/20 04:59:55;;;;;;;7.78;1.95;;;;;;;-142.75;100.00;79147.84;5050412;28;20029;-67
2022/01/20 05:02:25;;;;;;;8.60;1.25;;;;;;;-142.75;100.00;79153.75;5032738;28;20025;-67
2022/01/20 05:04:51;;;;;;;13.40;2.23;;;;;;;-142.75;100.00;79175.44;5034071;28;20446;-67
2022/01/20 05:07:23;;;;;;;;;;;;;;;-142.75;100.00;79191.19;5030782;28;20025;-67
2022/01/20 05:09:49;;;;;;;21.97;2.70;;;;;;;-142.75;100.00;79220.75;5012732;28;19920;-67
2022/01/20 05:12:19;;;;;;;22.40;4.03;;;;;;;-142.75;100.00;79228.63;5030713;28;20033;-67
2022/01/20 05:14:45;;;;;;;24.90;2.93;;;;;;;-142.75;100.00;79236.50;5030679;28;20100;-66
2022/01/20 05:17:10;;;;;;;26.10;3.58;;;;;;;-142.75;100.00;79248.31;5030303;28;20113;-67
2022/01/20 05:19:35;;;;;;;22.05;3.38;;;;;;;-142.75;100.00;79260.13;5012111;28;20052;-67
2022/01/20 05:22:01;;;;;;;20.73;3.13;;;;;;;-142.75;100.00;79258.16;5030475;28;20033;-67
2022/01/20 05:24:26;;;;;;;19.67;2.55;;;;;;;-142.75;100.00;79264.06;5031011;28;20272;-67
2022/01/20 05:26:54;;;;;;;24.52;3.22;;;;;;;-142.75;100.00;79252.25;5030081;28;20029;-67
2022/01/20 05:29:20;;;;;;;21.77;3.10;;;;;;;-142.75;100.00;79256.19;5029900;28;20028;-67
2022/01/20 05:31:46;;;;;;;21.37;3.27;;;;;;;-142.75;100.00;79252.25;5012537;28;20483;-67
2022/01/20 05:34:12;;;;;;;;;;;;;;;-142.75;100.00;79248.31;5030666;28;20544;-67
2022/01/20 05:36:37;;;;;;;19.53;3.33;;;;;;;-142.75;100.00;79256.19;5029997;28;19916;-67
2022/01/20 05:39:04;;;;;;;25.10;3.63;;;;;;;-142.75;100.00;79252.25;5012187;28;20367;-67
2022/01/20 05:41:29;;;;;;;16.90;3.03;;;;;;;-142.75;100.00;79240.44;5030145;28;20033;-68
2022/01/20 05:43:56;;;;;;;19.77;3.08;;;;;;;-142.75;100.00;79248.31;5030030;28;20033;-67
2022/01/20 05:46:24;;;;;;;21.33;3.47;;;;;;;-142.75;100.00;79252.25;5012423;28;20402;-67
2022/01/20 05:48:50;;;;;;;29.70;3.83;;;;;;;-142.75;100.00;79260.13;5029673;28;20483;-67
2022/01/20 05:51:17;;;;;;;24.48;3.53;;;;;;;-142.75;100.00;79260.13;5030254;28;20026;-67
2022/01/20 05:53:42;;;;;;;28.90;3.53;;;;;;;-142.75;100.00;79266.03;5030618;28;20470;-67
2022/01/20 05:56:07;;;;;;;23.63;3.55;;;;;;;-142.75;100.00;79268.00;5029953;28;20056;-67
2022/01/20 05:58:37;;;;;;;18.33;2.80;;;;;;;-142.75;100.00;79264.06;5015972;28;20242;-67
2022/01/20 06:01:06;;;;;;;20.47;2.80;;;;;;;-142.75;100.00;79258.16;5049333;28;20449;-67
2022/01/20 06:03:37;;;;;;;19.50;3.20;;;;;;;-142.75;100.00;79250.28;5049455;28;20040;-67
2022/01/20 06:06:07;;;;;;;18.80;3.07;;;;;;;-142.75;100.00;79248.31;5031966;28;20407;-67
2022/01/20 06:08:34;;;;;;;18.63;4.03;;;;;;;-142.75;100.00;79234.53;5049433;28;20029;-67
2022/01/20 06:10:59;;;;;;;12.17;2.50;;;;;;;-142.75;100.00;79238.47;5049679;28;20119;-67
2022/01/20 06:13:25;;;;;;;15.18;2.55;;;;;;;-142.75;100.00;79228.63;5049665;28;20071;-67
2022/01/20 06:15:51;;;;;;;19.40;2.97;;;;;;;-142.75;100.00;79228.63;5031840;28;20025;-67
2022/01/20 06:18:17;;;;;;;13.65;2.55;;;;;;;-142.75;100.00;79216.78;5049523;28;20021;-67
2022/01/20 06:20:43;;;;;;;;;;;;;;;-142.75;100.00;79212.84;5050092;28;20060;-67
2022/01/20 06:23:09;;;;;;;13.73;2.27;;;;;;;-142.75;100.00;79216.78;5049768;28;19948;-67
2022/01/20 06:25:35;;;;;;;14.10;3.00;;;;;;;-142.75;100.00;79220.75;5049744;28;20029;-67
2022/01/20 06:28:01;;;;;;;;;;;;;;;-142.75;100.00;79234.53;5031735;28;20025;-67
2022/01/20 06:30:27;;;;;;;11.93;1.97;;;;;;;-142.75;100.00;79230.59;5049606;28;19919;-67
2022/01/20 06:32:53;;;;;;;17.30;2.75;;;;;;;-142.75;100.00;79230.59;5051754;28;20044;-67
2022/01/20 06:35:19;;;;;;;10.52;1.48;;;;;;;-142.75;100.00;79246.34;5014157;28;20120;-67
2022/01/20 06:37:44;;;;;;;15.45;2.25;;;;;;;-142.75;100.00;79240.44;5033867;28;20398;-67
2022/01/20 06:40:11;;;;;;;15.00;2.13;;;;;;;-142.75;100.00;79234.53;5033755;28;20104;-66
2022/01/20 06:42:36;;;;;;;;;;;;;;;-142.75;100.00;79238.47;5034408;28;20033;-67
2022/01/20 06:45:06;;;;;;;16.10;2.63;;;;;;;-142.75;100.00;79232.56;5033840;28;19924;-67
2022/01/20 06:47:31;;;;;;;14.70;2.30;;;;;;;-142.75;100.00;79246.34;5015949;28;20442;-67
2022/01/20 06:49:57;;;;;;;9.52;1.95;;;;;;;-142.75;100.00;79248.31;5033643;28;20032;-67
2022/01/20 06:52:22;;;;;;;11.95;1.98;;;;;;;-142.75;100.00;79244.38;5033833;28;20029;-67
2022/01/20 06:54:47;;;;;;;13.97;1.63;;;;;;;-142.75;100.00;79271.94;5034126;28;20395;-67
2022/01/20 06:57:12;;;;;;;13.35;1.83;;;;;;;-142.75;100.00;79275.88;5033700;28;20101;-67
2022/01/20 06:59:38;;;;;;;11.55;1.83;;;;;;;-142.75;100.00;79287.72;5033324;28;20029;-67
2022/01/20 07:02:03;;;;;;;12.77;1.50;;;;;;;-142.75;100.00;79293.63;5015875;28;20025;-67
2022/01/20 07:04:28;;;;;;;15.07;1.65;;;;;;;-142.75;100.00;79305.44;5033468;28;20022;-67
2022/01/20 07:06:55;;;;;;;15.13;2.23;;;;;;;-142.75;100.00;79325.13;5033411;28;20092;-67
2022/01/20 07:09:20;;;;;;;;;;;;;;;-142.75;100.00;79335.00;5033685;28;20025;-67
2022/01/20 07:11:45;;;;;;;12.67;2.03;;;;;;;-142.75;100.00;79352.72;5053258;28;20359;-67
2022/01/20 07:14:11;;;;;;;9.73;1.83;;;;;;;-142.75;100.00;79370.44;5035280;28;20028;-67
2022/01/20 07:16:36;;;;;;;7.93;1.67;;;;;;;-142.75;100.00;79368.47;5035298;28;20028;-67
2022/01/20 07:19:02;;;;;;;13.40;1.98;;;;;;;-142.75;100.00;79372.41;5052750;28;20079;-67
2022/01/20 07:21:28;;;;;;;6.13;1.90;;;;;;;-142.75;100.00;79378.31;5053143;28;20039;-66
2022/01/20 07:23:53;;;;;;;16.73;2.00;;;;;;;-142.75;100.00;79374.38;5053139;28;20028;-67
2022/01/20 07:26:19;;;;;;;14.88;1.92;;;;;;;-142.75;100.00;79384.22;5052807;28;20021;-66
2022/01/20 07:28:45;;;;;;;14.15;1.55;;;;;;;-142.75;100.00;79384.22;5052668;28;20107;-67
2022/01/20 07:31:10;;;;;;;11.32;2.17;;;;;;;-142.75;100.00;79374.38;5052988;28;20082;-66
2022/01/20 07:33:36;;;;;;;11.88;1.65;;;;;;;-142.75;100.00;79378.31;5035073;28;20066;-67
2022/01/20 07:36:01;;;;;;;8.02;1.60;;;;;;;-142.75;100.00;79358.63;5052828;28;20508;-66
2022/01/20 07:38:26;;;;;;;18.02;2.28;;;;;;;-142.75;100.00;79368.47;5051668;28;20433;-66
2022/01/20 07:40:52;;;;;;;11.20;2.08;;;;;;;-142.75;100.00;79378.31;5051925;28;20029;-67
2022/01/20 07:43:18;;;;;;;12.20;1.63;;;;;;;-142.75;100.00;79390.13;5051230;28;20032;-66
2022/01/20 07:45:44;;;;;;;16.27;2.13;;;;;;;-142.75;100.00;79380.28;5051668;28;20033;-66
2022/01/20 07:48:09;;;;;;;13.30;2.20;;;;;;;-142.75;100.00;79376.34;5051473;28;20035;-66
2022/01/20 07:50:35;;;;;;;16.48;2.83;;;;;;;-142.75;100.00;79378.31;5051692;28;20017;-66
2022/01/20 07:53:00;;;;;;;15.02;2.42;;;;;;;-142.75;100.00;79372.41;5041594;28;20403;-66
2022/01/20 07:55:26;;;;;;;7.35;1.77;;;;;;;-142.75;100.00;79374.38;5031263;28;20030;-65
2022/01/20 07:57:51;;;;;;;16.73;2.22;;;;;;;-142.75;100.00;79390.13;5031095;28;20022;-67
2022/01/20 08:00:17;;;;;;;11.90;1.98;;;;;;;-142.75;100.00;79400.00;5031702;28;20395;-66
2022/01/20 08:02:43;;;;;;;15.25;1.90;;;;;;;-142.75;100.00;79409.84;5031584;28;20033;-66
2022/01/20 08:05:08;;;;;;;14.23;2.43;;;;;;;-142.75;100.00;79407.88;5031286;28;20033;-66
2022/01/20 08:07:34;;;;;;;18.55;2.78;;;;;;;-142.75;100.00;79417.72;5013553;28;20017;-66
2022/01/20 08:09:59;;;;;;;17.20;2.70;;;;;;;-142.75;100.00;79411.81;5031095;28;20026;-67
2022/01/20 08:12:25;;;;;;;11.65;2.40;;;;;;;-142.75;100.00;79411.81;5031458;28;20097;-66
2022/01/20 08:14:51;;;;;;;16.20;1.88;;;;;;;-142.75;100.00;79403.94;5013582;28;20060;-66
2022/01/20 08:17:17;;;;;;;14.00;1.90;;;;;;;-142.75;100.00;79403.94;5031121;28;20017;-67
2022/01/20 08:19:43;;;;;;;14.73;1.75;;;;;;;-142.75;100.00;79415.75;5030858;28;20037;-67
2022/01/20 08:22:08;;;;;;;15.65;2.45;;;;;;;-142.75;100.00;79413.78;5013546;28;20388;-66
2022/01/20 08:24:34;;;;;;;12.65;2.05;;;;;;;-142.75;100.00;79411.81;5030959;28;20029;-67
2022/01/20 08:27:00;;;;;;;14.13;2.05;;;;;;;-142.75;100.00;79413.78;5030834;28;20056;-66
2022/01/20 08:29:25;;;;;;;17.85;1.95;;;;;;;-142.75;100.00;79398.03;5013171;28;20116;-67
2022/01/20 08:31:50;;;;;;;14.00;2.53;;;;;;;-142.75;100.00;79390.13;5030996;28;20462;-67
2022/01/20 08:34:15;;;;;;;12.93;2.27;;;;;;;-142.75;100.00;79356.66;5030809;28;20824;-66
2022/01/20 08:36:41;;;;;;;17.33;2.13;;;;;;;-142.75;100.00;79331.03;5030330;28;20364;-67
2022/01/20 08:42:08;;;;;;;17.00;1.93;;;;;;;-142.75;100.00;79321.19;4931289;29;20558;-66
2022/01/20 08:44:34;;;;;;;19.98;3.28;;;;;;;-142.75;100.00;79329.06;5009447;28;20080;-66
2022/01/20 08:47:01;;;;;;;;;;;;;;;-142.75;100.00;79333.00;5048217;28;20037;-66
2022/01/20 08:49:27;;;;;;;14.63;2.20;;;;;;;-142.75;100.00;79333.00;5032420;28;19999;-67
2022/01/20 08:51:52;;;;;;;17.60;2.70;;;;;;;-142.75;100.00;79335.00;5050642;28;20107;-67
2022/01/20 08:54:18;;;;;;;15.37;2.37;;;;;;;-142.75;100.00;79331.03;5049879;28;20037;-66
2022/01/20 08:56:43;;;;;;;13.68;2.55;;;;;;;-142.75;100.00;79342.88;5032338;28;20255;-66
2022/01/20 08:59:11;;;;;;;16.60;2.63;;;;;;;-142.75;100.00;79327.09;5050358;28;20082;-69
2022/01/20 09:01:38;;;;;;;16.45;2.22;;;;;;;-142.75;100.00;79331.03;5029075;28;20091;-65
2022/01/20 09:04:04;;;;;;;19.17;2.53;;;;;;;-142.75;100.00;79327.09;5012279;28;20080;-65
2022/01/20 09:06:30;;;;;;;19.43;2.60;;;;;;;-142.75;100.00;79331.03;5030221;28;20037;-65
2022/01/20 09:08:56;;;;;;;12.10;2.00;;;;;;;-142.75;100.00;79329.06;5029722;28;20044;-66
2022/01/20 09:11:30;;;;;;;19.23;2.22;;;;;;;-142.75;100.00;79338.94;5012355;28;20467;-67
2022/01/20 09:16:41;;;;;;;11.63;2.50;;;;;;;-142.75;100.00;79417.72;5030493;28;20047;-67
2022/01/20 09:19:08;;;;;;;;;;;;;;;-142.75;100.00;79445.28;5012645;28;20024;-66
2022/01/20 09:21:33;;;;;;;15.15;2.25;;;;;;;-142.75;100.00;79441.34;5030213;28;19920;-67
2022/01/20 09:23:58;;;;;;;17.05;2.58;;;;;;;-142.75;100.00;79439.38;5029908;28;20033;-66
2022/01/20 09:26:24;;;;;;;17.43;3.17;;;;;;;-142.75;100.00;79443.31;5029931;28;20112;-66
2022/01/20 09:28:50;;;;;;;18.20;2.95;;;;;;;-142.75;100.00;79423.63;5012197;28;20291;-67
2022/01/20 09:31:18;;;;;;;21.67;4.32;;;;;;;-142.75;100.00;79419.69;5012239;28;20052;-66
2022/01/20 09:33:44;;;;;;;15.53;2.50;;;;;;;-142.75;100.00;79346.81;5046260;28;20112;-66
2022/01/20 09:36:10;;;;;;;;;;;;;;;-142.75;100.00;79244.38;5050363;28;20035;-65
2022/01/20 09:38:36;;;;;;;13.73;2.20;;;;;;;-142.75;100.00;79232.56;5049289;28;19943;-66
2022/01/20 09:41:03;;;;;;;12.10;2.33;;;;;;;-142.75;100.00;79240.44;5049818;28;20051;-66
2022/01/20 09:43:29;;;;;;;19.43;2.33;;;;;;;-142.75;100.00;79264.06;5049339;28;20028;-67
2022/01/20 09:45:57;;;;;;;19.75;1.77;;;;;;;-142.75;100.00;79273.91;5031646;28;20534;-66
2022/01/20 09:48:23;;;;;;;17.23;2.07;;;;;;;-142.75;100.00;79287.72;5049345;28;20067;-66
2022/01/20 09:50:49;;;;;;;10.97;2.10;;;;;;;-142.75;100.00;79297.56;5049619;28;20376;-66
2022/01/20 09:53:15;;;;;;;18.70;2.42;;;;;;;-142.75;100.00;79291.66;5049581;28;20119;-67
2022/01/20 09:55:41;;;;;;;12.27;2.03;;;;;;;-142.75;100.00;79301.50;5031687;28;20025;-67
2022/01/20 09:58:08;;;;;;;19.38;2.63;;;;;;;-142.75;100.00;79303.47;5049493;28;20436;-67
2022/01/20 10:00:34;;;;;;;17.90;2.70;;;;;;;-142.75;100.00;79309.38;5049608;28;20032;-67
2022/01/20 10:03:08;;;;;;;17.52;2.28;;;;;;;-142.75;100.00;79313.31;5031801;28;20394;-67
2022/01/20 10:05:45;;;;;;;21.63;2.30;;;;;;;-142.75;100.00;79323.16;5031501;28;20029;-67
2022/01/20 10:08:25;;;;;;;18.65;2.72;;;;;;;-142.75;100.00;79331.03;5045907;28;20048;-66
2022/01/20 10:11:03;;;;;;;7.73;1.73;;;;;;;-142.75;100.00;79354.69;5033352;28;20045;-67
2022/01/20 10:13:31;;;;;;;12.53;2.17;;;;;;;-142.75;100.00;79362.56;5014199;28;20082;-66
2022/01/20 10:15:58;;;;;;;11.50;1.57;;;;;;;-142.75;100.00;79394.09;5014924;28;20033;-67
2022/01/20 10:18:24;;;;;;;14.10;2.33;;;;;;;-142.75;100.00;79401.97;5032718;28;20021;-67
2022/01/20 10:20:55;;;;;;;15.85;2.60;;;;;;;-142.75;100.00;79409.84;5033220;28;20036;-65
2022/01/20 10:23:31;;;;;;;11.77;2.03;;;;;;;-142.75;100.00;79405.91;5015360;28;20025;-66
2022/01/20 10:26:09;;;;;;;17.25;2.67;;;;;;;-142.75;100.00;79403.94;5015536;28;20083;-67
2022/01/20 10:29:07;;;;;;;11.43;1.27;;;;;;;-142.75;100.00;79405.91;5032948;28;20081;-67
2022/01/20 10:31:40;;;;;;;13.85;2.03;;;;;;;-142.75;100.00;79415.75;5033421;28;20423;-65
2022/01/20 10:34:18;;;;;;;7.77;1.60;;;;;;;-142.75;100.00;79303.47;5033247;28;20030;-67
2022/01/20 10:36:54;;;;;;;9.20;1.43;;;;;;;-142.75;100.00;79220.75;5032019;28;20562;-66
2022/01/20 10:39:29;;;;;;;9.00;1.50;;;;;;;-142.75;100.00;79143.91;5032907;28;20840;-67
2022/01/20 10:42:26;;;;;;;11.97;1.77;;;;;;;-142.75;100.00;79078.91;5033089;28;20028;-67
2022/01/20 10:44:57;;;;;;;9.98;1.38;;;;;;;-142.75;100.00;79043.47;5013785;28;20040;-67
2022/01/20 10:47:24;;;;;;;11.80;1.67;;;;;;;-142.75;100.00;79019.81;5032665;28;20095;-66
2022/01/20 10:49:50;;;;;;;15.53;1.77;;;;;;;-142.75;100.00;78974.53;5014971;28;20030;-67
2022/01/20 10:52:19;;;;;;;8.07;1.38;;;;;;;-142.75;100.00;79033.63;5015083;28;20025;-65
2022/01/20 10:54:52;;;;;;;16.30;2.20;;;;;;;-142.75;100.00;79043.47;5032756;28;20080;-67
2022/01/20 10:57:26;;;;;;;14.10;1.80;;;;;;;-142.75;100.00;79015.88;5032751;28;20040;-67
2022/01/20 11:00:03;;;;;;;16.70;1.92;;;;;;;-142.75;100.00;78964.69;5032440;28;20029;-67
2022/01/20 11:02:29;;;;;;;9.05;1.13;;;;;;;-142.75;100.00;78909.53;5031971;28;20638;-66
2022/01/20 11:04:56;;;;;;;12.98;1.77;;;;;;;-142.75;100.00;78879.97;5032631;28;20112;-68
2022/01/20 11:07:23;;;;;;;10.35;1.88;;;;;;;-142.75;100.00;78954.81;5032240;28;20453;-66
2022/01/20 11:09:55;;;;;;;14.65;1.70;;;;;;;-142.75;100.00;79015.88;5032331;28;20509;-67
2022/01/20 11:12:21;;;;;;;14.90;1.65;;;;;;;-142.75;100.00;79067.09;5032592;28;20021;-66
2022/01/20 11:14:48;;;;;;;12.77;1.75;;;;;;;-142.75;100.00;79116.34;5035779;28;20017;-67
2022/01/20 11:17:29;;;;;;;20.13;2.23;;;;;;;-142.75;100.00;79143.91;5052248;28;20060;-67
2022/01/20 11:20:18;;;;;;;12.90;1.87;;;;;;;-142.75;100.00;79177.41;5034071;28;20029;-67
2022/01/20 11:23:04;;;;;;;10.30;1.90;;;;;;;-142.75;100.00;79218.75;5033968;28;20033;-67
2022/01/20 11:25:35;;;;;;;17.52;1.92;;;;;;;-142.75;100.00;79281.81;5034319;28;20021;-67
2022/01/20 11:28:08;;;;;;;13.60;2.97;;;;;;;-142.75;100.00;79299.53;5033916;28;20116;-66
2022/01/20 11:30:38;;;;;;;12.47;2.53;;;;;;;-142.75;100.00;79354.69;5052299;28;20112;-67
2022/01/20 11:33:09;;;;;;;10.23;1.60;;;;;;;-142.75;100.00;79405.91;5052032;28;20079;-67
2022/01/20 11:35:40;;;;;;;12.40;1.33;;;;;;;-142.75;100.00;79435.44;5033942;28;20067;-67
2022/01/20 11:38:07;;;;;;;9.47;1.20;;;;;;;-142.75;100.00;79425.59;5051752;28;20479;-67
2022/01/20 11:40:32;;;;;;;5.33;0.97;;;;;;;-142.75;100.00;79419.69;5051875;28;20091;-67
2022/01/20 11:43:05;;;;;;;10.40;1.60;;;;;;;-142.75;100.00;79409.84;5051984;28;20040;-66
2022/01/20 11:45:39;;;;;;;8.03;1.87;;;;;;;-142.75;100.00;79382.25;5015726;28;20384;-67
2022/01/20 11:48:14;;;;;;;8.13;1.80;;;;;;;-142.75;100.00;79315.28;5031402;28;20033;-68
2022/01/20 11:50:40;;;;;;;15.70;1.30;;;;;;;-142.75;100.00;79252.25;5013949;28;20987;-68
2022/01/20 11:53:20;;;;;;;9.02;2.00;;;;;;;-142.75;100.00;79151.78;5031837;28;20067;-67
2022/01/20 11:55:52;;;;;;;9.63;1.50;;;;;;;-142.75;100.00;79086.78;5013872;28;20040;-67
2022/01/20 11:58:20;;;;;;;12.43;1.93;;;;;;;-142.75;100.00;79006.03;5031493;28;20782;-67
2022/01/20 12:01:04;;;;;;;6.57;1.13;;;;;;;-142.75;100.00;78937.09;5031830;28;20021;-68
2022/01/20 12:03:30;;;;;;;11.33;1.83;;;;;;;-142.75;100.00;78889.81;5014034;28;20103;-68
2022/01/20 12:06:04;;;;;;;11.37;1.93;;;;;;;-142.75;100.00;78834.69;5013496;28;20498;-68
2022/01/20 12:08:30;;;;;;;10.40;1.63;;;;;;;-142.75;100.00;78828.78;5030910;28;20502;-67
2022/01/20 12:11:08;;;;;;;8.80;1.70;;;;;;;-142.75;100.00;78872.09;5033057;28;20064;-68
2022/01/20 12:13:55;;;;;;;11.20;1.50;;;;;;;-142.75;100.00;78913.47;5032361;28;20044;-67